createdAt,value
2018-09-19T00:00:02.030Z,100880.72
2018-09-19T00:02:30.582Z,100878.05
2018-09-19T00:04:59.201Z,100880.56
2018-09-19T00:07:27.870Z,100877.77
2018-09-19T00:09:56.320Z,100878.56
2018-09-19T00:12:24.861Z,100884.28
2018-09-19T00:14:54.231Z,100882.03
2018-09-19T00:17:22.834Z,100881.44
2018-09-19T00:19:51.445Z,100884.63
2018-09-19T00:22:19.934Z,100886.20
2018-09-19T00:24:48.500Z,100884.05
2018-09-19T00:27:17.173Z,100886.20
2018-09-19T00:29:45.727Z,100882.30
2018-09-19T00:32:15.187Z,100886.97
2018-09-19T00:34:43.729Z,100893.86
2018-09-19T00:37:12.219Z,100894.50
2018-09-19T00:39:40.722Z,100899.61
2018-09-19T00:42:09.236Z,100896.95
2018-09-19T00:44:38.006Z,100893.97
2018-09-19T00:47:06.675Z,100890.19
2018-09-19T00:49:35.178Z,100894.34
2018-09-19T00:52:03.734Z,100899.08
2018-09-19T00:54:32.363Z,100903.23
2018-09-19T00:57:01.174Z,100896.19
2018-09-19T00:59:29.670Z,100896.82
2018-09-19T01:01:58.251Z,100896.31
2018-09-19T01:04:26.840Z,100891.48
2018-09-19T01:06:55.338Z,100893.74
2018-09-19T01:09:24.025Z,100896.82
2018-09-19T01:11:52.570Z,100897.58
2018-09-19T01:14:21.592Z,100906.27
2018-09-19T01:16:50.064Z,100907.98
2018-09-19T01:19:18.705Z,100908.37
2018-09-19T01:21:47.230Z,100908.55
2018-09-19T01:24:15.843Z,100904.39
2018-09-19T01:26:44.518Z,100910.44
2018-09-19T01:29:13.142Z,100911.87
2018-09-19T01:31:42.348Z,100910.72
2018-09-19T01:34:10.849Z,100917.20
2018-09-19T01:36:39.412Z,100917.98
2018-09-19T01:39:08.196Z,100914.20
2018-09-19T01:41:36.785Z,100916.09
2018-09-19T01:44:05.437Z,100916.14
2018-09-19T01:46:33.936Z,100918.70
2018-09-19T01:49:02.841Z,100916.38
2018-09-19T01:51:31.353Z,100922.36
2018-09-19T01:53:59.905Z,100919.31
2018-09-19T01:56:28.518Z,100916.09
2018-09-19T01:58:57.835Z,100920.34
2018-09-19T02:01:26.673Z,100935.39
2018-09-19T02:03:55.163Z,100933.91
2018-09-19T02:06:23.724Z,100936.73
2018-09-19T02:08:52.250Z,100935.94
2018-09-19T02:11:20.831Z,100931.15
2018-09-19T02:13:49.339Z,100940.05
2018-09-19T02:16:18.602Z,100933.20
2018-09-19T02:18:47.184Z,100935.05
2018-09-19T02:21:15.866Z,100939.50
2018-09-19T02:23:44.579Z,100944.47
2018-09-19T02:26:13.151Z,100948.70
2018-09-19T02:28:42.804Z,100944.50
2018-09-19T02:31:11.266Z,100948.42
2018-09-19T02:33:39.737Z,100944.50
2018-09-19T02:36:08.294Z,100941.41
2018-09-19T02:38:36.927Z,100945.22
2018-09-19T02:41:05.873Z,100942.92
2018-09-19T02:43:34.430Z,100944.25
2018-09-19T02:46:03.562Z,100946.23
2018-09-19T02:48:32.052Z,100935.91
2018-09-19T02:51:00.553Z,100939.79
2018-09-19T02:53:29.321Z,100938.67
2018-09-19T02:55:58.590Z,100951.48
2018-09-19T02:58:27.107Z,100943.49
2018-09-19T03:00:55.684Z,100948.42
2018-09-19T03:03:24.185Z,100943.52
2018-09-19T03:05:52.713Z,100946.61
2018-09-19T03:08:21.185Z,100946.00
2018-09-19T03:10:50.297Z,100943.98
2018-09-19T03:13:18.866Z,100944.27
2018-09-19T03:15:47.442Z,100941.10
2018-09-19T03:18:16.145Z,100949.41
2018-09-19T03:20:44.662Z,100945.12
2018-09-19T03:23:13.207Z,100949.72
2018-09-19T03:25:41.733Z,100953.37
2018-09-19T03:28:10.612Z,100953.61
2018-09-19T03:30:39.183Z,100948.18
2018-09-19T03:33:07.738Z,100951.87
2018-09-19T03:35:36.552Z,100955.58
2018-09-19T03:38:05.885Z,100949.42
2018-09-19T03:40:34.868Z,100949.73
2018-09-19T03:43:04.240Z,100953.41
2018-09-19T03:45:32.819Z,100951.98
2018-09-19T03:48:01.330Z,100957.22
2018-09-19T03:50:30.588Z,100958.86
2018-09-19T03:52:59.144Z,100960.40
2018-09-19T03:55:27.693Z,100964.09
2018-09-19T03:57:56.726Z,100970.42
2018-09-19T04:00:27.070Z,100971.23
2018-09-19T04:02:55.542Z,100962.84
2018-09-19T04:05:24.326Z,100959.48
2018-09-19T04:07:52.905Z,100955.71
2018-09-19T04:10:21.484Z,100962.03
2018-09-19T04:12:50.189Z,100958.16
2018-09-19T04:15:18.701Z,100956.84
2018-09-19T04:17:47.263Z,100964.61
2018-09-19T04:20:15.791Z,100962.56
2018-09-19T04:22:45.134Z,100956.95
2018-09-19T04:25:13.719Z,100961.45
2018-09-19T04:27:42.199Z,100956.05
2018-09-19T04:30:10.760Z,100963.61
2018-09-19T04:32:39.223Z,100958.70
2018-09-19T04:35:08.440Z,100962.57
2018-09-19T04:37:36.977Z,100966.34
2018-09-19T04:40:05.710Z,100955.50
2018-09-19T04:42:34.281Z,100957.87
2018-09-19T04:45:02.950Z,100952.55
2018-09-19T04:47:31.410Z,100950.60
2018-09-19T04:49:59.933Z,100945.08
2018-09-19T04:52:29.188Z,100949.59
2018-09-19T04:54:58.930Z,100947.45
2018-09-19T04:57:27.501Z,100946.00
2018-09-19T04:59:56.375Z,100943.95
2018-09-19T05:02:24.946Z,100952.06
2018-09-19T05:04:54.076Z,100947.52
2018-09-19T05:07:22.693Z,100954.06
2018-09-19T05:09:51.234Z,100953.45
2018-09-19T05:12:19.929Z,100947.09
2018-09-19T05:14:48.423Z,100950.05
2018-09-19T05:17:16.955Z,100942.39
2018-09-19T05:19:45.441Z,100943.62
2018-09-19T05:22:14.029Z,100932.37
2018-09-19T05:24:42.543Z,100935.66
2018-09-19T05:27:11.092Z,100929.19
2018-09-19T05:29:39.603Z,100928.19
2018-09-19T05:32:08.134Z,100928.58
2018-09-19T05:34:37.602Z,100924.48
2018-09-19T05:37:06.139Z,100919.97
2018-09-19T05:39:35.285Z,100929.69
2018-09-19T05:42:03.993Z,100924.05
2018-09-19T05:44:32.500Z,100926.66
2018-09-19T05:47:01.583Z,100926.19
2018-09-19T05:49:30.072Z,100924.72
2018-09-19T05:51:58.565Z,100922.20
2018-09-19T05:54:28.327Z,100910.41
2018-09-19T05:56:56.862Z,100905.82
2018-09-19T05:59:25.392Z,100909.59
2018-09-19T06:01:53.913Z,100910.16
2018-09-19T06:04:22.457Z,100907.01
2018-09-19T06:06:51.051Z,100901.00
2018-09-19T06:09:19.643Z,100908.05
2018-09-19T06:11:48.179Z,100912.15
2018-09-19T06:14:16.713Z,100900.59
2018-09-19T06:16:45.257Z,100902.79
2018-09-19T06:19:13.781Z,100908.44
2018-09-19T06:21:42.339Z,100904.97
2018-09-19T06:24:10.805Z,100903.02
2018-09-19T06:26:39.327Z,100909.47
2018-09-19T06:29:07.806Z,100918.83
2018-09-19T06:31:36.325Z,100912.91
2018-09-19T06:34:04.865Z,100919.14
2018-09-19T06:36:33.338Z,100928.91
2018-09-19T06:39:01.889Z,100928.92
2018-09-19T06:41:30.393Z,100924.47
2018-09-19T06:43:58.884Z,100929.49
2018-09-19T06:46:27.423Z,100928.29
2018-09-19T06:48:55.920Z,100929.39
2018-09-19T06:51:24.420Z,100927.11
2018-09-19T06:53:52.942Z,100935.63
2018-09-19T06:56:21.510Z,100938.89
2018-09-19T06:58:50.061Z,100941.14
2018-09-19T07:01:18.635Z,100941.78
2018-09-19T07:03:47.167Z,100944.28
2018-09-19T07:06:15.693Z,100946.16
2018-09-19T07:08:44.283Z,100956.34
2018-09-19T07:11:13.036Z,100964.69
2018-09-19T07:13:41.591Z,100945.85
2018-09-19T07:16:10.185Z,100939.91
2018-09-19T07:18:38.765Z,100940.34
2018-09-19T07:21:07.257Z,100936.56
2018-09-19T07:23:35.853Z,100930.30
2018-09-19T07:26:04.445Z,100927.15
2018-09-19T07:28:32.946Z,100925.02
2018-09-19T07:31:08.945Z,100916.27
2018-09-19T07:33:38.180Z,100912.20
2018-09-19T07:36:06.719Z,100903.39
2018-09-19T07:38:35.221Z,100901.13
2018-09-19T07:41:03.758Z,100908.95
2018-09-19T07:43:32.234Z,100903.05
2018-09-19T07:46:00.734Z,100900.98
2018-09-19T07:48:29.748Z,100907.56
2018-09-19T07:50:59.106Z,100912.78
2018-09-19T07:53:35.549Z,100908.94
2018-09-19T07:56:04.567Z,100901.75
2018-09-19T07:58:33.407Z,100912.13
2018-09-19T08:01:02.002Z,100917.67
2018-09-19T08:03:30.413Z,100916.47
2018-09-19T08:05:58.958Z,100920.30
2018-09-19T08:08:27.524Z,100916.80
2018-09-19T08:10:56.039Z,100921.15
2018-09-19T08:13:24.522Z,100909.59
2018-09-19T08:15:53.070Z,100918.56
2018-09-19T08:18:21.561Z,100921.70
2018-09-19T08:20:50.073Z,100914.31
2018-09-19T08:23:18.574Z,100918.78
2018-09-19T08:25:47.054Z,100922.17
2018-09-19T08:28:15.558Z,100914.58
2018-09-19T08:30:44.102Z,100907.16
2018-09-19T08:33:12.653Z,100906.97
2018-09-19T08:35:41.196Z,100899.84
2018-09-19T08:38:09.743Z,100896.23
2018-09-19T08:40:38.298Z,100893.03
2018-09-19T08:43:06.874Z,100893.70
2018-09-19T08:45:35.369Z,100885.78
2018-09-19T08:48:03.977Z,100882.06
2018-09-19T08:50:32.498Z,100883.00
2018-09-19T08:53:01.924Z,100879.69
2018-09-19T08:55:30.612Z,100885.47
2018-09-19T08:57:59.567Z,100880.78
2018-09-19T09:00:28.094Z,100877.27
2018-09-19T09:04:25.732Z,100872.91
2018-09-19T09:06:54.373Z,100874.92
2018-09-19T09:09:23.179Z,100873.34
2018-09-19T09:11:51.686Z,100871.25
2018-09-19T09:14:20.906Z,100877.25
2018-09-19T09:16:50.043Z,100868.99
2018-09-19T09:19:19.078Z,100864.13
2018-09-19T09:24:15.033Z,100855.78
2018-09-19T09:26:43.534Z,100854.23
2018-09-19T09:29:12.058Z,100858.88
2018-09-19T09:31:40.589Z,100867.83
2018-09-19T09:34:09.145Z,100851.14
2018-09-19T09:36:37.800Z,100850.92
2018-09-19T09:39:07.053Z,100844.22
2018-09-19T09:41:35.622Z,100857.17
2018-09-19T09:44:04.226Z,100863.75
2018-09-19T09:46:33.472Z,100851.34
2018-09-19T09:49:01.995Z,100849.46
2018-09-19T09:51:30.526Z,100854.31
2018-09-19T09:53:59.117Z,100858.38
2018-09-19T09:56:28.742Z,100858.33
2018-09-19T09:58:57.322Z,100854.30
2018-09-19T10:01:25.825Z,100849.44
2018-09-19T10:03:54.292Z,100862.41
2018-09-19T10:06:22.847Z,100858.63
2018-09-19T10:08:51.301Z,100852.44
2018-09-19T10:11:19.980Z,100839.20
2018-09-19T10:13:49.275Z,100843.51
2018-09-19T10:16:17.807Z,100839.97
2018-09-19T10:18:46.337Z,100847.99
2018-09-19T10:21:14.866Z,100857.94
2018-09-19T10:23:43.361Z,100852.31
2018-09-19T10:26:11.930Z,100846.92
2018-09-19T10:28:40.450Z,100850.70
2018-09-19T10:31:08.986Z,100850.78
2018-09-19T10:33:37.526Z,100855.96
2018-09-19T10:36:06.668Z,100859.75
2018-09-19T10:38:35.158Z,100865.67
2018-09-19T10:41:03.666Z,100846.20
2018-09-19T10:43:32.186Z,100862.06
2018-09-19T10:46:00.743Z,100875.52
2018-09-19T10:48:29.275Z,100871.48
2018-09-19T10:50:57.781Z,100877.03
2018-09-19T10:53:26.422Z,100861.98
2018-09-19T10:55:54.957Z,100864.91
2018-09-19T10:58:23.633Z,100862.58
2018-09-19T11:00:52.176Z,100855.73
2018-09-19T11:03:21.041Z,100867.27
2018-09-19T11:05:49.566Z,100864.32
2018-09-19T11:08:18.117Z,100852.41
2018-09-19T11:10:46.817Z,100845.69
2018-09-19T11:13:16.044Z,100865.14
2018-09-19T11:15:44.580Z,100850.81
2018-09-19T11:18:13.129Z,100852.15
2018-09-19T11:20:41.700Z,100859.16
2018-09-19T11:23:10.227Z,100852.17
2018-09-19T11:25:38.730Z,100847.55
2018-09-19T11:28:09.502Z,100862.90
2018-09-19T11:30:39.734Z,100871.86
2018-09-19T11:33:08.240Z,100865.95
2018-09-19T11:35:36.746Z,100863.23
2018-09-19T11:38:05.869Z,100861.63
2018-09-19T11:40:34.377Z,100858.92
2018-09-19T11:43:02.903Z,100857.56
2018-09-19T11:45:31.381Z,100855.12
2018-09-19T11:47:59.890Z,100863.48
2018-09-19T11:50:28.934Z,100861.58
2018-09-19T11:52:57.517Z,100844.55
2018-09-19T11:55:26.014Z,100846.16
2018-09-19T11:57:54.569Z,100856.72
2018-09-19T12:00:23.089Z,100862.98
2018-09-19T12:02:51.794Z,100858.92
2018-09-19T12:05:20.901Z,100860.26
2018-09-19T12:07:49.482Z,100864.33
2018-09-19T12:10:18.120Z,100867.30
2018-09-19T12:12:46.793Z,100860.79
2018-09-19T12:15:15.319Z,100854.60
2018-09-19T12:17:43.881Z,100859.45
2018-09-19T12:20:12.425Z,100847.28
2018-09-19T12:22:41.860Z,100849.69
2018-09-19T12:25:10.421Z,100847.99
2018-09-19T12:27:38.947Z,100851.53
2018-09-19T12:30:07.485Z,100841.58
2018-09-19T12:32:35.970Z,100857.99
2018-09-19T12:35:04.704Z,100854.50
2018-09-19T12:37:34.239Z,100849.67
2018-09-19T12:40:02.790Z,100850.98
2018-09-19T12:42:31.325Z,100853.92
2018-09-19T12:44:59.821Z,100856.36
2018-09-19T12:47:28.353Z,100845.55
2018-09-19T12:49:56.892Z,100845.06
2018-09-19T12:52:25.433Z,100839.88
2018-09-19T12:54:53.958Z,100831.23
2018-09-19T12:57:22.513Z,100845.24
2018-09-19T12:59:50.981Z,100836.03
2018-09-19T13:02:19.450Z,100836.84
2018-09-19T13:04:47.986Z,100827.45
2018-09-19T13:07:16.502Z,100836.67
2018-09-19T13:09:44.990Z,100836.63
2018-09-19T13:12:13.768Z,100833.41
2018-09-19T13:14:42.457Z,100824.19
2018-09-19T13:17:11.616Z,100833.91
2018-09-19T13:19:40.613Z,100826.08
2018-09-19T13:22:09.362Z,100823.09
2018-09-19T13:24:37.875Z,100815.73
2018-09-19T13:27:06.402Z,100820.82
2018-09-19T13:29:34.931Z,100811.95
2018-09-19T13:32:03.442Z,100816.55
2018-09-19T13:34:31.950Z,100821.42
2018-09-19T13:37:00.642Z,100815.44
2018-09-19T13:39:29.363Z,100813.80
2018-09-19T13:41:57.865Z,100797.64
2018-09-19T13:44:26.438Z,100810.28
2018-09-19T13:46:54.974Z,100812.45
2018-09-19T13:49:30.914Z,100813.59
2018-09-19T13:51:59.507Z,100813.84
2018-09-19T13:54:27.981Z,100813.81
2018-09-19T13:56:56.503Z,100814.69
2018-09-19T13:59:25.021Z,100810.88
2018-09-19T14:01:53.546Z,100828.99
2018-09-19T14:04:22.045Z,100813.59
2018-09-19T14:06:50.790Z,100811.10
2018-09-19T14:09:19.379Z,100814.38
2018-09-19T14:11:47.986Z,100809.22
2018-09-19T14:14:16.537Z,100816.27
2018-09-19T14:16:45.049Z,100816.23
2018-09-19T14:19:14.864Z,100825.64
2018-09-19T14:21:43.357Z,100824.25
2018-09-19T14:24:11.836Z,100829.22
2018-09-19T14:26:40.423Z,100834.68
2018-09-19T14:29:08.966Z,100830.09
2018-09-19T14:31:37.629Z,100832.79
2018-09-19T14:34:06.113Z,100824.66
2018-09-19T14:36:34.625Z,100830.31
2018-09-19T14:39:03.793Z,100817.61
2018-09-19T14:41:32.294Z,100819.81
2018-09-19T14:44:00.881Z,100817.92
2018-09-19T14:46:29.422Z,100815.27
2018-09-19T14:48:57.975Z,100817.95
2018-09-19T14:51:26.503Z,100807.11
2018-09-19T14:53:54.965Z,100820.37
2018-09-19T14:56:23.487Z,100817.41
2018-09-19T14:58:52.006Z,100821.46
2018-09-19T15:01:20.610Z,100820.11
2018-09-19T15:03:49.141Z,100820.09
2018-09-19T15:06:17.673Z,100823.89
2018-09-19T15:08:46.224Z,100833.35
2018-09-19T15:11:14.729Z,100835.55
2018-09-19T15:13:43.368Z,100840.69
2018-09-19T15:16:11.926Z,100833.92
2018-09-19T15:18:40.469Z,100842.84
2018-09-19T15:21:08.965Z,100835.00
2018-09-19T15:23:37.479Z,100846.92
2018-09-19T15:26:05.989Z,100841.28
2018-09-19T15:28:34.723Z,100845.58
2018-09-19T15:31:03.236Z,100842.59
2018-09-19T15:33:31.797Z,100843.96
2018-09-19T15:36:00.376Z,100843.45
2018-09-19T15:38:28.999Z,100843.43
2018-09-19T15:40:57.438Z,100845.83
2018-09-19T15:43:25.954Z,100835.85
2018-09-19T15:45:54.467Z,100847.75
2018-09-19T15:48:22.972Z,100837.80
2018-09-19T15:50:52.489Z,100837.54
2018-09-19T15:53:21.118Z,100842.96
2018-09-19T15:55:49.643Z,100839.45
2018-09-19T15:58:19.515Z,100827.05
2018-09-19T16:00:48.034Z,100838.67
2018-09-19T16:03:16.553Z,100832.47
2018-09-19T16:05:45.241Z,100839.50
2018-09-19T16:08:13.784Z,100843.28
2018-09-19T16:10:42.577Z,100844.88
2018-09-19T16:13:11.099Z,100844.07
2018-09-19T16:15:40.241Z,100844.87
2018-09-19T16:18:08.841Z,100841.36
2018-09-19T16:20:37.321Z,100842.99
2018-09-19T16:23:05.813Z,100841.64
2018-09-19T16:25:34.346Z,100839.22
2018-09-19T16:28:02.843Z,100843.51
2018-09-19T16:30:31.395Z,100850.53
2018-09-19T16:32:59.931Z,100850.50
2018-09-19T16:35:28.409Z,100856.11
2018-09-19T16:37:57.645Z,100858.00
2018-09-19T16:40:26.362Z,100860.39
2018-09-19T16:42:55.562Z,100862.83
2018-09-19T16:45:24.195Z,100859.03
2018-09-19T16:47:52.760Z,100870.58
2018-09-19T16:50:22.062Z,100870.80
2018-09-19T16:52:50.623Z,100871.00
2018-09-19T16:55:19.124Z,100867.17
2018-09-19T16:57:47.641Z,100870.84
2018-09-19T17:00:16.458Z,100878.34
2018-09-19T17:02:47.734Z,100879.66
2018-09-19T17:05:16.244Z,100880.44
2018-09-19T17:07:45.166Z,100887.07
2018-09-19T17:10:13.889Z,100890.59
2018-09-19T17:12:42.434Z,100882.73
2018-09-19T17:15:10.963Z,100889.69
2018-09-19T17:17:39.501Z,100891.30
2018-09-19T17:20:08.222Z,100891.22
2018-09-19T17:22:37.697Z,100894.27
2018-09-19T17:25:06.226Z,100892.58
2018-09-19T17:27:34.965Z,100898.18
2018-09-19T17:30:03.922Z,100898.35
2018-09-19T17:32:32.437Z,100899.03
2018-09-19T17:35:01.105Z,100908.50
2018-09-19T17:37:31.201Z,100905.13
2018-09-19T17:39:59.750Z,100906.86
2018-09-19T17:42:28.306Z,100904.80
2018-09-19T17:44:56.865Z,100909.29
2018-09-19T17:47:25.657Z,100903.34
2018-09-19T17:49:54.301Z,100910.27
2018-09-19T17:52:22.865Z,100907.16
2018-09-19T17:54:51.607Z,100906.84
2018-09-19T17:57:20.173Z,100913.61
2018-09-19T17:59:48.651Z,100915.84
2018-09-19T18:02:18.001Z,100917.34
2018-09-19T18:04:46.633Z,100923.59
2018-09-19T18:07:15.247Z,100923.66
2018-09-19T18:09:43.817Z,100926.15
2018-09-19T18:12:13.129Z,100927.63
2018-09-19T18:14:41.764Z,100925.77
2018-09-19T18:17:10.762Z,100929.29
2018-09-19T18:19:39.954Z,100926.78
2018-09-19T18:22:08.569Z,100929.47
2018-09-19T18:24:37.149Z,100925.03
2018-09-19T18:27:05.998Z,100926.96
2018-09-19T18:29:34.498Z,100928.55
2018-09-19T18:32:03.124Z,100933.73
2018-09-19T18:34:31.662Z,100929.75
2018-09-19T18:37:00.238Z,100924.48
2018-09-19T18:39:28.849Z,100924.13
2018-09-19T18:41:57.457Z,100927.39
2018-09-19T18:44:26.861Z,100928.66
2018-09-19T18:46:55.442Z,100927.55
2018-09-19T18:49:23.965Z,100930.40
2018-09-19T18:51:52.470Z,100934.33
2018-09-19T18:54:21.022Z,100935.81
2018-09-19T18:56:49.885Z,100944.72
2018-09-19T18:59:18.443Z,100944.45
2018-09-19T19:01:47.006Z,100940.56
2018-09-19T19:04:15.523Z,100946.75
2018-09-19T19:06:44.126Z,100942.13
2018-09-19T19:09:13.246Z,100946.53
2018-09-19T19:11:42.085Z,100943.72
2018-09-19T19:14:10.557Z,100941.20
2018-09-19T19:16:39.173Z,100942.56
2018-09-19T19:19:07.699Z,100943.06
2018-09-19T19:21:36.302Z,100951.38
2018-09-19T19:24:04.803Z,100950.09
2018-09-19T19:26:33.378Z,100958.06
2018-09-19T19:29:01.894Z,100955.56
2018-09-19T19:31:31.517Z,100959.50
2018-09-19T19:34:00.043Z,100958.33
2018-09-19T19:36:28.539Z,100966.73
2018-09-19T19:38:56.993Z,100979.87
2018-09-19T19:41:25.613Z,100968.41
2018-09-19T19:43:54.109Z,100965.64
2018-09-19T19:46:22.612Z,100978.69
2018-09-19T19:48:51.182Z,100979.42
2018-09-19T19:51:20.284Z,100977.44
2018-09-19T19:53:48.773Z,100982.53
2018-09-19T19:56:17.347Z,100988.38
2018-09-19T19:58:46.813Z,100990.73
2018-09-19T20:01:15.311Z,100991.39
2018-09-19T20:03:43.866Z,100997.11
2018-09-19T20:06:12.381Z,100995.50
2018-09-19T20:08:40.953Z,100992.44
2018-09-19T20:11:09.718Z,100995.30
2018-09-19T20:13:39.353Z,101000.27
2018-09-19T20:16:08.357Z,100993.95
2018-09-19T20:18:37.510Z,100994.00
2018-09-19T20:21:06.210Z,100994.69
2018-09-19T20:23:34.705Z,100992.55
2018-09-19T20:26:03.221Z,101000.45
2018-09-19T20:28:32.651Z,101001.66
2018-09-19T20:31:01.575Z,101000.56
2018-09-19T20:33:30.586Z,101000.80
2018-09-19T20:35:59.066Z,101004.30
2018-09-19T20:38:27.574Z,101010.11
2018-09-19T20:40:56.063Z,101006.30
2018-09-19T20:43:24.590Z,101011.86
2018-09-19T20:45:54.470Z,101009.41
2018-09-19T20:48:23.061Z,101012.36
2018-09-19T20:50:51.586Z,101005.81
2018-09-19T20:53:20.050Z,101010.41
2018-09-19T20:55:48.765Z,101010.63
2018-09-19T20:58:17.269Z,101014.00
2018-09-19T21:00:46.329Z,101008.39
2018-09-19T21:03:14.846Z,101003.45
2018-09-19T21:05:43.450Z,101007.67
2018-09-19T21:08:12.501Z,101008.73
2018-09-19T21:10:41.011Z,101007.22
2018-09-19T21:13:09.762Z,101008.91
2018-09-19T21:15:38.275Z,101006.47
2018-09-19T21:18:06.874Z,101011.28
2018-09-19T21:20:35.505Z,101006.70
2018-09-19T21:23:04.054Z,101002.98
2018-09-19T21:25:32.571Z,101004.97
2018-09-19T21:28:01.079Z,100998.86
2018-09-19T21:30:29.603Z,100998.86
2018-09-19T21:32:58.882Z,101000.73
2018-09-19T21:35:27.402Z,100998.29
2018-09-19T21:37:55.910Z,101008.33
2018-09-19T21:40:24.401Z,101001.63
2018-09-19T21:42:52.939Z,100997.92
2018-09-19T21:45:21.470Z,100998.68
2018-09-19T21:47:49.977Z,100998.09
2018-09-19T21:50:18.510Z,100993.37
2018-09-19T21:52:47.051Z,100999.48
2018-09-19T21:55:15.549Z,101002.30
2018-09-19T21:57:44.094Z,101001.00
2018-09-19T22:00:12.847Z,100994.08
2018-09-19T22:02:41.361Z,101001.48
2018-09-19T22:05:10.016Z,100998.16
2018-09-19T22:07:38.545Z,100996.00
2018-09-19T22:10:07.626Z,100996.28
2018-09-19T22:12:36.117Z,100991.39
2018-09-19T22:15:05.081Z,100986.34
2018-09-19T22:17:33.646Z,100995.14
2018-09-19T22:20:03.002Z,100989.67
2018-09-19T22:22:31.465Z,100987.78
2018-09-19T22:25:00.253Z,100988.55
2018-09-19T22:27:29.398Z,100986.63
2018-09-19T22:29:57.853Z,100974.62
2018-09-19T22:32:26.577Z,100978.30
2018-09-19T22:34:55.089Z,100978.81
2018-09-19T22:37:23.582Z,100972.97
2018-09-19T22:39:53.473Z,100971.25
2018-09-19T22:42:21.994Z,100975.09
2018-09-19T22:44:50.498Z,100978.12
2018-09-19T22:47:19.505Z,100967.36
2018-09-19T22:49:48.066Z,100976.27
2018-09-19T22:52:17.073Z,100976.61
2018-09-19T22:54:46.205Z,100960.19
2018-09-19T22:57:14.724Z,100964.61
2018-09-19T22:59:43.212Z,100966.94
2018-09-19T23:02:11.722Z,100971.66
2018-09-19T23:04:40.254Z,100964.61
2018-09-19T23:07:08.811Z,100963.64
2018-09-19T23:09:37.294Z,100968.69
2018-09-19T23:12:05.869Z,100965.22
2018-09-19T23:14:35.679Z,100962.55
2018-09-19T23:17:04.311Z,100954.73
2018-09-19T23:19:32.805Z,100954.97
2018-09-19T23:22:01.329Z,100953.94
2018-09-19T23:24:30.069Z,100958.70
2018-09-19T23:26:58.545Z,100949.27
2018-09-19T23:29:27.090Z,100952.06
2018-09-19T23:31:55.597Z,100953.17
2018-09-19T23:34:24.803Z,100964.86
2018-09-19T23:36:53.611Z,100957.25
2018-09-19T23:39:22.093Z,100964.50
2018-09-19T23:41:51.404Z,100959.23
2018-09-19T23:44:21.238Z,100958.69
2018-09-19T23:46:49.724Z,100954.95
2018-09-19T23:49:18.238Z,100957.66
2018-09-19T23:51:46.826Z,100957.97
2018-09-19T23:54:15.949Z,100948.92
2018-09-19T23:56:44.633Z,100952.98
2018-09-19T23:59:13.166Z,100945.26
